Morrison, Missouri
Current Conditions -  °F | °C
As of 3:53 AM on Monday 22 Dec 2014 (Local Time) from KJEF Reporting Station
Overcast Overcast  
Wind Chill: 36°   Ceiling: 3700
Heat Index: 41°   Visibility: 10mi
Dew Point: 35°   Wind: 7mph
Humidity: 79%   Direction: 100°E
Pressure: 29.75"   Gusts: NA
Location:  38.67°N, 91.64°W
Report Text: KJEF 220953Z AUTO 10006KT 10SM BKN037 BKN049 OVC060 05/02 A2975 RMK AO2 RAE0855B15E24 SLP067 P0000 T00500017
Loading
Personal Weather Stations






























Interactive Weather Map New forecast layout! Learn more

10-Day Weather Forecast

Advertisements
Track Severe Weather on mobile